sensor_id;sensor_type;location;lat;lon;timestamp;P1;durP1;ratioP1;P2;durP2;ratioP2
59074;SDS011;44860;53.020;6.738;2023-02-28T00:01:19;10.05;;;5.30;;
59074;SDS011;44860;53.020;6.738;2023-02-28T00:03:45;11.30;;;5.20;;
59074;SDS011;44860;53.020;6.738;2023-02-28T00:06:11;11.20;;;5.50;;
59074;SDS011;44860;53.020;6.738;2023-02-28T00:08:37;9.57;;;5.13;;
59074;SDS011;44860;53.020;6.738;2023-02-28T00:11:03;10.82;;;5.60;;
59074;SDS011;44860;53.020;6.738;2023-02-28T00:13:31;9.45;;;5.63;;
59074;SDS011;44860;53.020;6.738;2023-02-28T00:16:02;14.70;;;6.03;;
59074;SDS011;44860;53.020;6.738;2023-02-28T00:18:33;11.02;;;6.15;;
59074;SDS011;44860;53.020;6.738;2023-02-28T00:20:59;16.17;;;6.47;;
59074;SDS011;44860;53.020;6.738;2023-02-28T00:23:25;12.65;;;6.40;;
59074;SDS011;44860;53.020;6.738;2023-02-28T00:25:51;11.85;;;5.75;;
59074;SDS011;44860;53.020;6.738;2023-02-28T00:28:17;13.02;;;6.60;;
59074;SDS011;44860;53.020;6.738;2023-02-28T00:30:43;11.90;;;6.00;;
59074;SDS011;44860;53.020;6.738;2023-02-28T00:33:09;13.07;;;7.00;;
59074;SDS011;44860;53.020;6.738;2023-02-28T00:35:34;11.93;;;6.00;;
59074;SDS011;44860;53.020;6.738;2023-02-28T00:38:00;10.65;;;6.40;;
59074;SDS011;44860;53.020;6.738;2023-02-28T00:40:26;11.25;;;5.90;;
59074;SDS011;44860;53.020;6.738;2023-02-28T00:42:52;15.02;;;6.90;;
59074;SDS011;44860;53.020;6.738;2023-02-28T00:45:18;11.30;;;5.78;;
59074;SDS011;44860;53.020;6.738;2023-02-28T00:47:44;12.30;;;6.25;;
59074;SDS011;44860;53.020;6.738;2023-02-28T00:50:11;13.10;;;6.63;;
59074;SDS011;44860;53.020;6.738;2023-02-28T00:52:37;12.07;;;6.85;;
59074;SDS011;44860;53.020;6.738;2023-02-28T00:55:03;13.70;;;6.93;;
59074;SDS011;44860;53.020;6.738;2023-02-28T00:57:29;11.30;;;6.28;;
59074;SDS011;44860;53.020;6.738;2023-02-28T00:59:55;12.68;;;6.63;;
59074;SDS011;44860;53.020;6.738;2023-02-28T01:02:21;14.00;;;6.60;;
59074;SDS011;44860;53.020;6.738;2023-02-28T01:04:47;12.88;;;6.60;;
59074;SDS011;44860;53.020;6.738;2023-02-28T01:07:13;10.88;;;6.13;;
59074;SDS011;44860;53.020;6.738;2023-02-28T01:09:39;9.10;;;5.60;;
59074;SDS011;44860;53.020;6.738;2023-02-28T01:12:06;10.32;;;6.07;;
59074;SDS011;44860;53.020;6.738;2023-02-28T01:14:33;9.00;;;5.95;;
59074;SDS011;44860;53.020;6.738;2023-02-28T01:16:59;10.70;;;6.10;;
59074;SDS011;44860;53.020;6.738;2023-02-28T01:19:25;10.55;;;6.68;;
59074;SDS011;44860;53.020;6.738;2023-02-28T01:21:51;11.68;;;6.40;;
59074;SDS011;44860;53.020;6.738;2023-02-28T01:24:17;10.20;;;6.28;;
59074;SDS011;44860;53.020;6.738;2023-02-28T01:26:42;9.80;;;5.95;;
59074;SDS011;44860;53.020;6.738;2023-02-28T01:29:08;10.80;;;6.57;;
59074;SDS011;44860;53.020;6.738;2023-02-28T01:31:34;12.55;;;6.38;;
59074;SDS011;44860;53.020;6.738;2023-02-28T01:34:00;9.75;;;6.50;;
59074;SDS011;44860;53.020;6.738;2023-02-28T01:36:25;12.07;;;6.97;;
59074;SDS011;44860;53.020;6.738;2023-02-28T01:38:51;12.35;;;6.95;;
59074;SDS011;44860;53.020;6.738;2023-02-28T01:41:35;12.93;;;6.68;;
59074;SDS011;44860;53.020;6.738;2023-02-28T01:44:02;14.18;;;7.35;;
59074;SDS011;44860;53.020;6.738;2023-02-28T01:46:47;10.27;;;6.55;;
59074;SDS011;44860;53.020;6.738;2023-02-28T01:49:14;14.82;;;6.82;;
59074;SDS011;44860;53.020;6.738;2023-02-28T01:51:51;9.63;;;6.78;;
59074;SDS011;44860;53.020;6.738;2023-02-28T01:54:21;11.60;;;7.05;;
59074;SDS011;44860;53.020;6.738;2023-02-28T01:56:54;12.38;;;6.78;;
59074;SDS011;44860;53.020;6.738;2023-02-28T01:59:27;12.15;;;7.15;;
59074;SDS011;44860;53.020;6.738;2023-02-28T02:01:59;14.40;;;7.38;;
59074;SDS011;44860;53.020;6.738;2023-02-28T02:04:27;12.48;;;6.93;;
59074;SDS011;44860;53.020;6.738;2023-02-28T02:06:59;13.27;;;7.00;;
59074;SDS011;44860;53.020;6.738;2023-02-28T02:09:25;11.32;;;7.03;;
59074;SDS011;44860;53.020;6.738;2023-02-28T02:11:50;13.07;;;7.32;;
59074;SDS011;44860;53.020;6.738;2023-02-28T02:17:34;12.18;;;7.68;;
59074;SDS011;44860;53.020;6.738;2023-02-28T02:30:43;15.38;;;6.82;;
59074;SDS011;44860;53.020;6.738;2023-02-28T02:35:56;10.88;;;6.43;;
59074;SDS011;44860;53.020;6.738;2023-02-28T02:43:52;11.52;;;6.72;;
59074;SDS011;44860;53.020;6.738;2023-02-28T02:46:26;10.57;;;6.13;;
59074;SDS011;44860;53.020;6.738;2023-02-28T02:49:03;10.48;;;6.25;;
59074;SDS011;44860;53.020;6.738;2023-02-28T02:51:33;15.65;;;6.72;;
59074;SDS011;44860;53.020;6.738;2023-02-28T02:54:02;10.60;;;6.35;;
59074;SDS011;44860;53.020;6.738;2023-02-28T02:56:36;10.80;;;6.28;;
59074;SDS011;44860;53.020;6.738;2023-02-28T02:59:07;10.95;;;6.07;;
59074;SDS011;44860;53.020;6.738;2023-02-28T03:01:36;9.43;;;5.65;;
59074;SDS011;44860;53.020;6.738;2023-02-28T03:04:06;10.15;;;5.85;;
59074;SDS011;44860;53.020;6.738;2023-02-28T03:06:35;10.15;;;5.82;;
59074;SDS011;44860;53.020;6.738;2023-02-28T03:09:01;10.85;;;6.15;;
59074;SDS011;44860;53.020;6.738;2023-02-28T03:11:27;12.02;;;6.05;;
59074;SDS011;44860;53.020;6.738;2023-02-28T03:16:36;11.30;;;6.40;;
59074;SDS011;44860;53.020;6.738;2023-02-28T03:29:57;10.57;;;6.10;;
59074;SDS011;44860;53.020;6.738;2023-02-28T03:32:33;12.05;;;6.43;;
59074;SDS011;44860;53.020;6.738;2023-02-28T03:35:38;10.25;;;6.38;;
59074;SDS011;44860;53.020;6.738;2023-02-28T03:38:06;10.13;;;6.53;;
59074;SDS011;44860;53.020;6.738;2023-02-28T03:40:50;9.63;;;6.32;;
59074;SDS011;44860;53.020;6.738;2023-02-28T03:43:26;11.48;;;6.32;;
59074;SDS011;44860;53.020;6.738;2023-02-28T03:45:55;11.05;;;6.50;;
59074;SDS011;44860;53.020;6.738;2023-02-28T03:48:28;9.18;;;6.18;;
59074;SDS011;44860;53.020;6.738;2023-02-28T03:51:08;10.18;;;6.50;;
59074;SDS011;44860;53.020;6.738;2023-02-28T03:53:53;10.40;;;6.85;;
59074;SDS011;44860;53.020;6.738;2023-02-28T03:56:24;13.23;;;7.18;;
59074;SDS011;44860;53.020;6.738;2023-02-28T04:01:47;11.00;;;6.82;;
59074;SDS011;44860;53.020;6.738;2023-02-28T04:04:14;12.93;;;7.30;;
59074;SDS011;44860;53.020;6.738;2023-02-28T04:06:41;12.60;;;7.30;;
59074;SDS011;44860;53.020;6.738;2023-02-28T04:09:08;12.80;;;7.40;;
59074;SDS011;44860;53.020;6.738;2023-02-28T04:11:42;14.82;;;7.15;;
59074;SDS011;44860;53.020;6.738;2023-02-28T04:14:20;10.00;;;6.60;;
59074;SDS011;44860;53.020;6.738;2023-02-28T04:16:46;11.93;;;7.60;;
59074;SDS011;44860;53.020;6.738;2023-02-28T04:19:12;13.93;;;7.47;;
59074;SDS011;44860;53.020;6.738;2023-02-28T04:21:44;13.88;;;7.60;;
59074;SDS011;44860;53.020;6.738;2023-02-28T04:24:18;13.43;;;7.45;;
59074;SDS011;44860;53.020;6.738;2023-02-28T04:26:46;11.23;;;7.88;;
59074;SDS011;44860;53.020;6.738;2023-02-28T04:29:14;12.13;;;7.65;;
59074;SDS011;44860;53.020;6.738;2023-02-28T04:31:44;15.05;;;7.65;;
59074;SDS011;44860;53.020;6.738;2023-02-28T04:34:10;13.80;;;8.60;;
59074;SDS011;44860;53.020;6.738;2023-02-28T04:36:35;15.77;;;8.55;;
59074;SDS011;44860;53.020;6.738;2023-02-28T04:39:01;12.88;;;7.75;;
59074;SDS011;44860;53.020;6.738;2023-02-28T04:41:29;12.52;;;8.35;;
59074;SDS011;44860;53.020;6.738;2023-02-28T04:43:54;13.27;;;8.27;;
59074;SDS011;44860;53.020;6.738;2023-02-28T04:46:21;11.63;;;7.80;;
59074;SDS011;44860;53.020;6.738;2023-02-28T04:48:47;11.15;;;7.63;;
59074;SDS011;44860;53.020;6.738;2023-02-28T04:51:13;16.60;;;8.93;;
59074;SDS011;44860;53.020;6.738;2023-02-28T04:53:40;13.43;;;7.97;;
59074;SDS011;44860;53.020;6.738;2023-02-28T04:56:07;11.98;;;7.78;;
59074;SDS011;44860;53.020;6.738;2023-02-28T04:58:35;13.65;;;8.52;;
59074;SDS011;44860;53.020;6.738;2023-02-28T05:01:05;13.93;;;8.95;;
59074;SDS011;44860;53.020;6.738;2023-02-28T05:03:43;14.57;;;8.90;;
59074;SDS011;44860;53.020;6.738;2023-02-28T05:06:10;15.35;;;9.20;;
59074;SDS011;44860;53.020;6.738;2023-02-28T05:08:37;13.43;;;9.30;;
59074;SDS011;44860;53.020;6.738;2023-02-28T05:11:03;13.57;;;9.30;;
59074;SDS011;44860;53.020;6.738;2023-02-28T05:13:29;16.05;;;10.55;;
59074;SDS011;44860;53.020;6.738;2023-02-28T05:15:55;14.60;;;10.85;;
59074;SDS011;44860;53.020;6.738;2023-02-28T05:18:21;17.73;;;10.15;;
59074;SDS011;44860;53.020;6.738;2023-02-28T05:20:47;17.25;;;10.88;;
59074;SDS011;44860;53.020;6.738;2023-02-28T05:23:13;18.00;;;11.63;;
59074;SDS011;44860;53.020;6.738;2023-02-28T05:25:39;14.80;;;10.77;;
59074;SDS011;44860;53.020;6.738;2023-02-28T05:28:05;17.17;;;10.40;;
59074;SDS011;44860;53.020;6.738;2023-02-28T05:30:32;15.30;;;10.70;;
59074;SDS011;44860;53.020;6.738;2023-02-28T05:32:58;16.35;;;10.88;;
59074;SDS011;44860;53.020;6.738;2023-02-28T05:35:24;16.92;;;10.35;;
59074;SDS011;44860;53.020;6.738;2023-02-28T05:37:50;15.65;;;11.18;;
59074;SDS011;44860;53.020;6.738;2023-02-28T05:40:16;15.85;;;10.80;;
59074;SDS011;44860;53.020;6.738;2023-02-28T05:42:42;14.85;;;10.40;;
59074;SDS011;44860;53.020;6.738;2023-02-28T05:45:08;18.30;;;11.45;;
59074;SDS011;44860;53.020;6.738;2023-02-28T05:47:35;17.10;;;11.07;;
59074;SDS011;44860;53.020;6.738;2023-02-28T05:50:01;18.50;;;11.75;;
59074;SDS011;44860;53.020;6.738;2023-02-28T05:52:28;20.63;;;12.07;;
59074;SDS011;44860;53.020;6.738;2023-02-28T05:54:55;18.30;;;12.07;;
59074;SDS011;44860;53.020;6.738;2023-02-28T05:57:21;20.52;;;12.00;;
59074;SDS011;44860;53.020;6.738;2023-02-28T05:59:47;17.52;;;11.98;;
59074;SDS011;44860;53.020;6.738;2023-02-28T06:02:13;20.15;;;11.90;;
59074;SDS011;44860;53.020;6.738;2023-02-28T06:04:40;17.92;;;11.50;;
59074;SDS011;44860;53.020;6.738;2023-02-28T06:07:06;18.88;;;11.93;;
59074;SDS011;44860;53.020;6.738;2023-02-28T06:09:33;17.70;;;11.88;;
59074;SDS011;44860;53.020;6.738;2023-02-28T06:11:59;16.65;;;12.25;;
59074;SDS011;44860;53.020;6.738;2023-02-28T06:14:25;21.08;;;11.63;;
59074;SDS011;44860;53.020;6.738;2023-02-28T06:16:51;19.48;;;12.63;;
59074;SDS011;44860;53.020;6.738;2023-02-28T06:19:17;19.63;;;12.27;;
59074;SDS011;44860;53.020;6.738;2023-02-28T06:21:42;18.23;;;11.75;;
59074;SDS011;44860;53.020;6.738;2023-02-28T06:24:08;19.60;;;12.32;;
59074;SDS011;44860;53.020;6.738;2023-02-28T06:26:34;20.42;;;12.43;;
59074;SDS011;44860;53.020;6.738;2023-02-28T06:29:00;18.17;;;12.20;;
59074;SDS011;44860;53.020;6.738;2023-02-28T06:31:26;19.40;;;13.27;;
59074;SDS011;44860;53.020;6.738;2023-02-28T06:33:54;19.77;;;12.73;;
59074;SDS011;44860;53.020;6.738;2023-02-28T06:36:20;20.92;;;13.35;;
59074;SDS011;44860;53.020;6.738;2023-02-28T06:38:46;20.58;;;13.25;;
59074;SDS011;44860;53.020;6.738;2023-02-28T06:41:16;19.40;;;13.10;;
59074;SDS011;44860;53.020;6.738;2023-02-28T06:43:42;23.90;;;13.60;;
59074;SDS011;44860;53.020;6.738;2023-02-28T06:46:10;20.77;;;13.55;;
59074;SDS011;44860;53.020;6.738;2023-02-28T06:48:38;19.40;;;12.88;;
59074;SDS011;44860;53.020;6.738;2023-02-28T06:51:05;20.70;;;14.38;;
59074;SDS011;44860;53.020;6.738;2023-02-28T06:53:33;19.80;;;13.10;;
59074;SDS011;44860;53.020;6.738;2023-02-28T06:55:59;22.83;;;13.82;;
59074;SDS011;44860;53.020;6.738;2023-02-28T06:58:28;19.17;;;12.98;;
59074;SDS011;44860;53.020;6.738;2023-02-28T07:00:54;23.45;;;13.57;;
59074;SDS011;44860;53.020;6.738;2023-02-28T07:03:21;21.77;;;14.00;;
59074;SDS011;44860;53.020;6.738;2023-02-28T07:05:46;20.73;;;13.10;;
59074;SDS011;44860;53.020;6.738;2023-02-28T07:08:12;22.13;;;14.88;;
59074;SDS011;44860;53.020;6.738;2023-02-28T07:10:38;21.63;;;14.77;;
59074;SDS011;44860;53.020;6.738;2023-02-28T07:13:04;24.40;;;14.73;;
59074;SDS011;44860;53.020;6.738;2023-02-28T07:15:31;19.92;;;14.13;;
59074;SDS011;44860;53.020;6.738;2023-02-28T07:17:56;23.55;;;14.38;;
59074;SDS011;44860;53.020;6.738;2023-02-28T07:20:22;20.58;;;14.48;;
59074;SDS011;44860;53.020;6.738;2023-02-28T07:22:49;22.13;;;14.55;;
59074;SDS011;44860;53.020;6.738;2023-02-28T07:25:22;21.38;;;14.45;;
59074;SDS011;44860;53.020;6.738;2023-02-28T07:27:48;22.85;;;14.35;;
59074;SDS011;44860;53.020;6.738;2023-02-28T07:30:14;22.05;;;14.43;;
59074;SDS011;44860;53.020;6.738;2023-02-28T07:32:39;22.17;;;14.43;;
59074;SDS011;44860;53.020;6.738;2023-02-28T07:35:05;21.73;;;13.80;;
59074;SDS011;44860;53.020;6.738;2023-02-28T07:37:31;19.85;;;14.48;;
59074;SDS011;44860;53.020;6.738;2023-02-28T07:40:05;21.02;;;14.48;;
59074;SDS011;44860;53.020;6.738;2023-02-28T07:42:33;24.35;;;15.13;;
59074;SDS011;44860;53.020;6.738;2023-02-28T07:45:00;22.17;;;15.32;;
59074;SDS011;44860;53.020;6.738;2023-02-28T07:47:26;21.27;;;14.43;;
59074;SDS011;44860;53.020;6.738;2023-02-28T07:49:53;25.02;;;14.70;;
59074;SDS011;44860;53.020;6.738;2023-02-28T07:52:19;26.13;;;14.98;;
59074;SDS011;44860;53.020;6.738;2023-02-28T07:54:45;20.40;;;14.50;;
59074;SDS011;44860;53.020;6.738;2023-02-28T07:57:10;24.42;;;14.60;;
59074;SDS011;44860;53.020;6.738;2023-02-28T07:59:36;19.90;;;14.80;;
59074;SDS011;44860;53.020;6.738;2023-02-28T08:02:02;23.55;;;15.02;;
59074;SDS011;44860;53.020;6.738;2023-02-28T08:04:27;20.17;;;13.98;;
59074;SDS011;44860;53.020;6.738;2023-02-28T08:06:57;25.95;;;15.63;;
59074;SDS011;44860;53.020;6.738;2023-02-28T08:09:23;20.70;;;14.60;;
59074;SDS011;44860;53.020;6.738;2023-02-28T08:11:48;21.80;;;14.75;;
59074;SDS011;44860;53.020;6.738;2023-02-28T08:14:14;25.00;;;15.00;;
59074;SDS011;44860;53.020;6.738;2023-02-28T08:16:40;21.70;;;15.23;;
59074;SDS011;44860;53.020;6.738;2023-02-28T08:19:08;24.27;;;15.55;;
59074;SDS011;44860;53.020;6.738;2023-02-28T08:21:33;23.42;;;14.93;;
59074;SDS011;44860;53.020;6.738;2023-02-28T08:23:59;24.83;;;15.50;;
59074;SDS011;44860;53.020;6.738;2023-02-28T08:26:25;24.65;;;14.75;;
59074;SDS011;44860;53.020;6.738;2023-02-28T08:28:51;22.17;;;14.55;;
59074;SDS011;44860;53.020;6.738;2023-02-28T08:31:17;20.98;;;14.80;;
59074;SDS011;44860;53.020;6.738;2023-02-28T08:33:44;22.17;;;15.48;;
59074;SDS011;44860;53.020;6.738;2023-02-28T08:36:10;22.02;;;15.18;;
59074;SDS011;44860;53.020;6.738;2023-02-28T08:38:37;23.75;;;15.82;;
59074;SDS011;44860;53.020;6.738;2023-02-28T08:41:04;21.67;;;15.50;;
59074;SDS011;44860;53.020;6.738;2023-02-28T08:43:32;23.30;;;16.00;;
59074;SDS011;44860;53.020;6.738;2023-02-28T08:45:59;23.55;;;15.77;;
59074;SDS011;44860;53.020;6.738;2023-02-28T08:48:25;20.63;;;15.35;;
59074;SDS011;44860;53.020;6.738;2023-02-28T08:50:59;26.48;;;16.80;;
59074;SDS011;44860;53.020;6.738;2023-02-28T08:53:29;23.50;;;15.77;;
59074;SDS011;44860;53.020;6.738;2023-02-28T08:55:56;23.77;;;15.82;;
59074;SDS011;44860;53.020;6.738;2023-02-28T08:58:26;24.08;;;16.58;;
59074;SDS011;44860;53.020;6.738;2023-02-28T09:00:52;28.95;;;17.25;;
59074;SDS011;44860;53.020;6.738;2023-02-28T09:03:18;23.85;;;16.92;;
59074;SDS011;44860;53.020;6.738;2023-02-28T09:05:52;23.15;;;16.10;;
59074;SDS011;44860;53.020;6.738;2023-02-28T09:08:26;21.65;;;15.90;;
59074;SDS011;44860;53.020;6.738;2023-02-28T09:10:54;24.10;;;15.73;;
59074;SDS011;44860;53.020;6.738;2023-02-28T09:13:22;22.83;;;16.67;;
59074;SDS011;44860;53.020;6.738;2023-02-28T09:15:47;22.30;;;15.85;;
59074;SDS011;44860;53.020;6.738;2023-02-28T09:18:13;24.08;;;15.75;;
59074;SDS011;44860;53.020;6.738;2023-02-28T09:20:40;25.38;;;17.33;;
59074;SDS011;44860;53.020;6.738;2023-02-28T09:23:07;20.77;;;15.45;;
59074;SDS011;44860;53.020;6.738;2023-02-28T09:25:34;20.63;;;15.70;;
59074;SDS011;44860;53.020;6.738;2023-02-28T09:27:59;24.63;;;15.23;;
59074;SDS011;44860;53.020;6.738;2023-02-28T09:30:26;22.40;;;15.93;;
59074;SDS011;44860;53.020;6.738;2023-02-28T09:32:52;22.77;;;15.25;;
59074;SDS011;44860;53.020;6.738;2023-02-28T09:35:19;24.58;;;15.13;;
59074;SDS011;44860;53.020;6.738;2023-02-28T09:37:50;20.42;;;14.63;;
59074;SDS011;44860;53.020;6.738;2023-02-28T09:40:21;22.65;;;15.30;;
59074;SDS011;44860;53.020;6.738;2023-02-28T09:42:49;17.75;;;14.48;;
59074;SDS011;44860;53.020;6.738;2023-02-28T09:45:21;18.33;;;13.65;;
59074;SDS011;44860;53.020;6.738;2023-02-28T09:47:58;19.48;;;14.25;;
59074;SDS011;44860;53.020;6.738;2023-02-28T09:53:05;20.60;;;12.70;;
59074;SDS011;44860;53.020;6.738;2023-02-28T09:55:42;18.27;;;13.43;;
59074;SDS011;44860;53.020;6.738;2023-02-28T09:58:16;17.77;;;12.95;;
59074;SDS011;44860;53.020;6.738;2023-02-28T10:04:33;17.30;;;12.55;;
59074;SDS011;44860;53.020;6.738;2023-02-28T10:07:11;20.73;;;14.15;;
59074;SDS011;44860;53.020;6.738;2023-02-28T10:09:55;16.70;;;11.93;;
59074;SDS011;44860;53.020;6.738;2023-02-28T10:12:23;15.07;;;10.23;;
59074;SDS011;44860;53.020;6.738;2023-02-28T10:14:51;15.32;;;11.35;;
59074;SDS011;44860;53.020;6.738;2023-02-28T10:17:19;18.40;;;12.40;;
59074;SDS011;44860;53.020;6.738;2023-02-28T10:22:19;13.85;;;10.45;;
59074;SDS011;44860;53.020;6.738;2023-02-28T10:24:50;14.95;;;11.20;;
59074;SDS011;44860;53.020;6.738;2023-02-28T10:29:48;12.50;;;10.73;;
59074;SDS011;44860;53.020;6.738;2023-02-28T10:32:19;14.75;;;10.75;;
59074;SDS011;44860;53.020;6.738;2023-02-28T10:34:52;13.23;;;10.23;;
59074;SDS011;44860;53.020;6.738;2023-02-28T10:37:22;15.98;;;11.90;;
59074;SDS011;44860;53.020;6.738;2023-02-28T10:39:48;15.38;;;11.98;;
59074;SDS011;44860;53.020;6.738;2023-02-28T10:42:21;14.93;;;11.05;;
59074;SDS011;44860;53.020;6.738;2023-02-28T10:47:53;14.95;;;11.13;;
59074;SDS011;44860;53.020;6.738;2023-02-28T10:50:32;14.80;;;11.10;;
59074;SDS011;44860;53.020;6.738;2023-02-28T10:53:07;12.77;;;10.20;;
59074;SDS011;44860;53.020;6.738;2023-02-28T10:55:39;15.43;;;9.95;;
59074;SDS011;44860;53.020;6.738;2023-02-28T10:58:17;13.15;;;9.38;;
59074;SDS011;44860;53.020;6.738;2023-02-28T11:00:47;11.20;;;8.65;;
59074;SDS011;44860;53.020;6.738;2023-02-28T11:03:23;11.90;;;8.43;;
59074;SDS011;44860;53.020;6.738;2023-02-28T11:06:04;10.57;;;8.65;;
59074;SDS011;44860;53.020;6.738;2023-02-28T11:08:32;11.35;;;8.85;;
59074;SDS011;44860;53.020;6.738;2023-02-28T11:10:58;10.88;;;8.93;;
59074;SDS011;44860;53.020;6.738;2023-02-28T11:13:33;11.88;;;8.48;;
59074;SDS011;44860;53.020;6.738;2023-02-28T11:16:02;10.00;;;7.93;;
59074;SDS011;44860;53.020;6.738;2023-02-28T11:18:32;11.75;;;8.43;;
59074;SDS011;44860;53.020;6.738;2023-02-28T11:21:04;15.02;;;9.02;;
59074;SDS011;44860;53.020;6.738;2023-02-28T11:23:31;12.48;;;8.63;;
59074;SDS011;44860;53.020;6.738;2023-02-28T11:26:00;11.32;;;8.68;;
59074;SDS011;44860;53.020;6.738;2023-02-28T11:28:28;11.90;;;7.78;;
59074;SDS011;44860;53.020;6.738;2023-02-28T11:38:56;11.38;;;8.02;;
59074;SDS011;44860;53.020;6.738;2023-02-28T11:41:31;11.02;;;8.13;;
59074;SDS011;44860;53.020;6.738;2023-02-28T11:44:16;9.20;;;7.43;;
59074;SDS011;44860;53.020;6.738;2023-02-28T11:50:02;9.07;;;7.40;;
59074;SDS011;44860;53.020;6.738;2023-02-28T11:55:35;10.10;;;7.32;;
59074;SDS011;44860;53.020;6.738;2023-02-28T12:06:13;10.98;;;7.38;;
59074;SDS011;44860;53.020;6.738;2023-02-28T12:08:56;12.85;;;8.32;;
59074;SDS011;44860;53.020;6.738;2023-02-28T12:11:56;9.50;;;7.22;;
59074;SDS011;44860;53.020;6.738;2023-02-28T12:14:46;9.13;;;7.18;;
59074;SDS011;44860;53.020;6.738;2023-02-28T12:23:56;10.40;;;7.30;;
59074;SDS011;44860;53.020;6.738;2023-02-28T12:27:00;12.50;;;7.93;;
59074;SDS011;44860;53.020;6.738;2023-02-28T12:29:23;10.75;;;8.10;;
59074;SDS011;44860;53.020;6.738;2023-02-28T12:32:10;9.15;;;7.80;;
59074;SDS011;44860;53.020;6.738;2023-02-28T12:34:47;12.40;;;8.40;;
59074;SDS011;44860;53.020;6.738;2023-02-28T12:39:50;13.60;;;7.72;;
59074;SDS011;44860;53.020;6.738;2023-02-28T12:42:30;8.57;;;7.35;;
59074;SDS011;44860;53.020;6.738;2023-02-28T12:45:08;11.15;;;8.02;;
59074;SDS011;44860;53.020;6.738;2023-02-28T12:47:42;10.35;;;7.32;;
59074;SDS011;44860;53.020;6.738;2023-02-28T12:50:10;10.68;;;6.85;;
59074;SDS011;44860;53.020;6.738;2023-02-28T12:55:12;9.02;;;6.85;;
59074;SDS011;44860;53.020;6.738;2023-02-28T13:00:19;10.15;;;6.63;;
59074;SDS011;44860;53.020;6.738;2023-02-28T13:10:56;10.40;;;7.82;;
59074;SDS011;44860;53.020;6.738;2023-02-28T13:13:26;11.40;;;7.38;;
59074;SDS011;44860;53.020;6.738;2023-02-28T13:18:39;9.25;;;6.30;;
59074;SDS011;44860;53.020;6.738;2023-02-28T13:21:09;9.00;;;6.47;;
59074;SDS011;44860;53.020;6.738;2023-02-28T13:29:02;9.07;;;6.80;;
59074;SDS011;44860;53.020;6.738;2023-02-28T13:31:31;8.88;;;6.53;;
59074;SDS011;44860;53.020;6.738;2023-02-28T13:34:05;9.73;;;6.43;;
59074;SDS011;44860;53.020;6.738;2023-02-28T13:36:38;7.68;;;6.60;;
59074;SDS011;44860;53.020;6.738;2023-02-28T13:47:38;9.70;;;6.10;;
59074;SDS011;44860;53.020;6.738;2023-02-28T14:06:33;8.53;;;6.47;;
59074;SDS011;44860;53.020;6.738;2023-02-28T14:11:38;6.55;;;5.82;;
59074;SDS011;44860;53.020;6.738;2023-02-28T14:14:06;9.48;;;6.43;;
59074;SDS011;44860;53.020;6.738;2023-02-28T14:16:38;9.57;;;6.65;;
59074;SDS011;44860;53.020;6.738;2023-02-28T14:19:14;8.50;;;6.57;;
59074;SDS011;44860;53.020;6.738;2023-02-28T14:27:24;8.13;;;6.57;;
59074;SDS011;44860;53.020;6.738;2023-02-28T14:29:59;9.75;;;6.07;;
59074;SDS011;44860;53.020;6.738;2023-02-28T14:35:18;8.35;;;6.50;;
59074;SDS011;44860;53.020;6.738;2023-02-28T14:37:46;8.52;;;6.32;;
59074;SDS011;44860;53.020;6.738;2023-02-28T14:40:21;6.93;;;5.80;;
59074;SDS011;44860;53.020;6.738;2023-02-28T14:43:00;7.35;;;5.85;;
59074;SDS011;44860;53.020;6.738;2023-02-28T14:45:29;9.02;;;6.43;;
59074;SDS011;44860;53.020;6.738;2023-02-28T14:47:56;7.75;;;6.60;;
59074;SDS011;44860;53.020;6.738;2023-02-28T14:50:34;8.65;;;6.43;;
59074;SDS011;44860;53.020;6.738;2023-02-28T14:53:01;8.60;;;6.78;;
59074;SDS011;44860;53.020;6.738;2023-02-28T14:55:29;8.55;;;6.72;;
59074;SDS011;44860;53.020;6.738;2023-02-28T14:57:57;9.27;;;7.10;;
59074;SDS011;44860;53.020;6.738;2023-02-28T15:00:26;9.00;;;7.35;;
59074;SDS011;44860;53.020;6.738;2023-02-28T15:02:55;10.13;;;6.97;;
59074;SDS011;44860;53.020;6.738;2023-02-28T15:05:26;10.00;;;7.15;;
59074;SDS011;44860;53.020;6.738;2023-02-28T15:08:04;8.85;;;6.70;;
59074;SDS011;44860;53.020;6.738;2023-02-28T15:10:35;8.95;;;7.05;;
59074;SDS011;44860;53.020;6.738;2023-02-28T15:13:04;11.35;;;8.15;;
59074;SDS011;44860;53.020;6.738;2023-02-28T15:18:21;9.95;;;7.40;;
59074;SDS011;44860;53.020;6.738;2023-02-28T15:21:02;9.43;;;7.13;;
59074;SDS011;44860;53.020;6.738;2023-02-28T15:23:33;10.02;;;7.47;;
59074;SDS011;44860;53.020;6.738;2023-02-28T15:26:01;8.57;;;7.32;;
59074;SDS011;44860;53.020;6.738;2023-02-28T15:28:27;9.23;;;7.10;;
59074;SDS011;44860;53.020;6.738;2023-02-28T15:30:55;10.10;;;7.45;;
59074;SDS011;44860;53.020;6.738;2023-02-28T15:33:27;8.88;;;7.07;;
59074;SDS011;44860;53.020;6.738;2023-02-28T15:36:13;8.23;;;7.30;;
59074;SDS011;44860;53.020;6.738;2023-02-28T15:38:42;9.32;;;7.70;;
59074;SDS011;44860;53.020;6.738;2023-02-28T15:41:28;8.77;;;7.30;;
59074;SDS011;44860;53.020;6.738;2023-02-28T15:47:04;9.55;;;7.38;;
59074;SDS011;44860;53.020;6.738;2023-02-28T15:49:53;11.13;;;7.65;;
59074;SDS011;44860;53.020;6.738;2023-02-28T15:52:24;9.85;;;7.80;;
59074;SDS011;44860;53.020;6.738;2023-02-28T15:57:34;9.80;;;8.07;;
59074;SDS011;44860;53.020;6.738;2023-02-28T16:00:01;9.98;;;7.82;;
59074;SDS011;44860;53.020;6.738;2023-02-28T16:02:37;9.55;;;7.53;;
59074;SDS011;44860;53.020;6.738;2023-02-28T16:07:36;10.77;;;8.52;;
59074;SDS011;44860;53.020;6.738;2023-02-28T16:10:03;9.32;;;7.68;;
59074;SDS011;44860;53.020;6.738;2023-02-28T16:12:31;10.60;;;8.27;;
59074;SDS011;44860;53.020;6.738;2023-02-28T16:15:00;12.32;;;8.32;;
59074;SDS011;44860;53.020;6.738;2023-02-28T16:17:31;9.90;;;8.20;;
59074;SDS011;44860;53.020;6.738;2023-02-28T16:19:59;9.25;;;7.38;;
59074;SDS011;44860;53.020;6.738;2023-02-28T16:22:24;11.77;;;8.68;;
59074;SDS011;44860;53.020;6.738;2023-02-28T16:24:50;10.40;;;8.43;;
59074;SDS011;44860;53.020;6.738;2023-02-28T16:27:35;9.85;;;8.50;;
59074;SDS011;44860;53.020;6.738;2023-02-28T16:30:03;12.57;;;8.65;;
59074;SDS011;44860;53.020;6.738;2023-02-28T16:32:30;9.95;;;8.60;;
59074;SDS011;44860;53.020;6.738;2023-02-28T16:34:59;10.27;;;8.90;;
59074;SDS011;44860;53.020;6.738;2023-02-28T16:37:26;10.95;;;9.07;;
59074;SDS011;44860;53.020;6.738;2023-02-28T16:39:52;10.52;;;8.88;;
59074;SDS011;44860;53.020;6.738;2023-02-28T16:42:21;11.65;;;9.52;;
59074;SDS011;44860;53.020;6.738;2023-02-28T16:44:52;11.63;;;9.75;;
59074;SDS011;44860;53.020;6.738;2023-02-28T16:47:18;10.90;;;8.82;;
59074;SDS011;44860;53.020;6.738;2023-02-28T16:49:44;10.98;;;9.07;;
59074;SDS011;44860;53.020;6.738;2023-02-28T16:52:12;11.57;;;8.82;;
59074;SDS011;44860;53.020;6.738;2023-02-28T16:54:38;13.05;;;9.65;;
59074;SDS011;44860;53.020;6.738;2023-02-28T16:57:06;11.50;;;8.45;;
59074;SDS011;44860;53.020;6.738;2023-02-28T16:59:36;13.70;;;8.77;;
59074;SDS011;44860;53.020;6.738;2023-02-28T17:02:04;11.27;;;8.73;;
59074;SDS011;44860;53.020;6.738;2023-02-28T17:04:36;14.00;;;9.38;;
59074;SDS011;44860;53.020;6.738;2023-02-28T17:07:02;12.50;;;9.07;;
59074;SDS011;44860;53.020;6.738;2023-02-28T17:09:28;10.45;;;9.32;;
59074;SDS011;44860;53.020;6.738;2023-02-28T17:11:53;10.95;;;9.27;;
59074;SDS011;44860;53.020;6.738;2023-02-28T17:14:19;11.23;;;9.20;;
59074;SDS011;44860;53.020;6.738;2023-02-28T17:16:46;10.90;;;9.15;;